Bob Hope Airport
KBUR : now visible

Airfield :











YOU CAN JOIN US ON...

 
LOGIN :

Register | Disclaimer

   EN    FR    IT 

 









Legend :    VFR   Marginal VFR   IFR   Intensive IFR   Very Intensive IFR
Visi :
Ceiling :
>= 8 km
>= 3000ft
5 to 8 km
1000 to 3000 ft
1500m to 5 km
500 to 1000 ft
800 to 1500m
200 to 500 ft
< 800m
< 200 ft
Symbols :   Thunderstorms  Fog  Heavy snow  Heavy precipitations  Wind > 20 kt







- Airport Elevation : 778 ft
- IATA code : BUR


KBUR - Bob Hope

CURRENT METAR :
  • 200813Z 26005KT 10SM BKN025 12/08 A2985 RMK AO2 T01170083 $

EXPIRED METARs :
  • 200753Z 26008KT 10SM FEW024 12/09 A2986 RMK AO2 SLP104 T01170089 401720100 $
  • 200713Z 27006KT 10SM BKN023 12/09 A2986 RMK AO2 T01220089 $
  • 200653Z 29005KT 10SM CLR 12/09 A2986 RMK AO2 SLP105 T01220089 $
  • 200553Z 29005KT 10SM BKN039 13/09 A2988 RMK AO2 SLP110 60004 T01280094 10167 20122 50007 $
  • 200532Z VRB04KT 10SM FEW020 SCT026 OVC035 12/10 A2988 RMK AO2 T01220100 $
  • 200519Z 00000KT 10SM SCT021 BKN027 OVC036 12/11 A2988 RMK AO2 T01220106 $

TAF KBUR
Valid from the 20 at 06:00 until the 21 at 06:00 UTC


200551Z 2006/2106 VRB03KT P6SM VCSH OVC035
FM200900 VRB03KT P6SM OVC050
FM201200 VRB03KT P6SM SCT050
FM202000 20010KT P6SM SCT050
FM210200 18008KT P6SM SKC
KZLA FIR / North America



MET'MAP, your aeronautical weather chart ! - Copyright ORBIFLY December 2007 - Disclaimer

ORBIFLY MET'MAP TEAM :

Programming & Development : Alexandra Zaïnal
Concept & Development : Baudouin d'Aumeries
Co-Development & Prog : Marc-Olivier Méhu
Technical & hardware support : Manuel Goepfert

Contact : metmap@orbifly.com




SOURCES & CREDITS :

   NOAA       Earth
Advisory